NCAR-RAP Real-Time Weather Data

Output produced by METARs form (12 May 2021  11:15 UTC)
found at http://weather.rap.ucar.edu/surface/
 
KMSO 121053Z AUTO 00000KT 10SM CLR 03/00 A3021 RMK AO2 SLP237 T00330000 $
KMSO 120953Z AUTO 04004KT 10SM CLR 05/00 A3020 RMK AO2 SLP229 T00500000 $
KMSO 120853Z AUTO 21003KT 10SM BKN110 05/01 A3020 RMK AO2 RAB0756E06 SLP227 P0000 60000 T00500006 54000 $
KMSO 120753Z AUTO 13004KT 10SM FEW055 BKN070 OVC100 08/00 A3019 RMK AO2 RAB27E38 SLP222 P0000 T00780000 $
KMSO 120653Z AUTO 00000KT 10SM BKN110 07/00 A3020 RMK AO2 SLP229 T00720000 401891011 $
KMSO 120553Z AUTO 01005KT 10SM BKN110 09/01 A3020 RMK AO2 SLP226 T00940006 10156 20089 51007 $
KMSO 120453Z AUTO 30006KT 10SM FEW070 OVC100 10/M02 A3019 RMK AO2 SLP228 T01001022 $
KMSO 120353Z 33008KT 10SM FEW075 OVC100 10/01 A3020 RMK AO2 SLP233 T01000006 $
KMSO 120253Z VRB06KT 10SM FEW090 OVC110 11/01 A3018 RMK AO2 SLP226 T01110006 53010 $
KMSO 120153Z 01012G18KT 10SM SCT120 11/01 A3017 RMK AO2 PK WND 02033/0105 WSHFT 0040 SLP226 T01110006 $
KMSO 120100Z 02019G32KT 10SM FEW070 OVC095 13/00 A3015 RMK AO2 PK WND 02030/0054 WSHFT 0040 T01330000 $
KMSO 120053Z 02022G32KT 10SM BKN095 OVC120 13/00 A3015 RMK AO2 PK WND 02032/0053 WSHFT 0038 SLP219 T01330000 $
KMSO 112353Z 28009KT 10SM OVC085 15/01 A3014 RMK AO2 SLP218 T01500006 10189 20133 53004 $
KMSO 112253Z 27013KT 10SM BKN100 BKN120 16/00 A3014 RMK AO2 SLP217 T01560000 $